Terminal Aerodrome Forecast
Issued by NWS

Home | Current Version | Previous Version | Text Only | Print | Product List | Glossary On
Versions: 1 2 3 4 5 6 7 8 9 10 11 12 13 14 15 16 17 18 19 20 21 22
313
FTUS46 KPDT 201209 AAA
TAFDLS
TAF AMD
KDLS 201209Z 2012/2112 VRB03KT 2SM BR OVC002
      TEMPO 2012/2016 00000KT 1SM BR
     FM201600 09003KT 3SM -SN BR SCT020 BKN030 OVC040
     FM201800 VRB03KT 1 1/2SM -RASN BR BKN020 OVC035
     FM210100 32005KT 5SM BR VCSH SCT020 BKN028 OVC035=

USA.gov is the U.S. government's official web portal to all federal, state and local government web resources and services.